sensor_id;sensor_type;location;lat;lon;timestamp;P1;durP1;ratioP1;P2;durP2;ratioP2
67195;SDS011;54122;53.538;49.366;2023-08-30T00:00:58;6.13;;;1.13;;
67195;SDS011;54122;53.538;49.366;2023-08-30T00:03:24;2.47;;;0.95;;
67195;SDS011;54122;53.538;49.366;2023-08-30T00:05:50;1.55;;;1.10;;
67195;SDS011;54122;53.538;49.366;2023-08-30T00:08:16;4.07;;;0.80;;
67195;SDS011;54122;53.538;49.366;2023-08-30T00:10:45;2.13;;;1.20;;
67195;SDS011;54122;53.538;49.366;2023-08-30T00:13:12;6.30;;;1.17;;
67195;SDS011;54122;53.538;49.366;2023-08-30T00:15:38;2.90;;;1.00;;
67195;SDS011;54122;53.538;49.366;2023-08-30T00:18:05;2.45;;;1.13;;
67195;SDS011;54122;53.538;49.366;2023-08-30T00:20:31;1.98;;;1.10;;
67195;SDS011;54122;53.538;49.366;2023-08-30T00:22:58;1.55;;;1.02;;
67195;SDS011;54122;53.538;49.366;2023-08-30T00:25:24;1.65;;;0.93;;
67195;SDS011;54122;53.538;49.366;2023-08-30T00:27:50;3.80;;;1.25;;
67195;SDS011;54122;53.538;49.366;2023-08-30T00:30:17;1.85;;;0.77;;
67195;SDS011;54122;53.538;49.366;2023-08-30T00:32:43;1.25;;;0.95;;
67195;SDS011;54122;53.538;49.366;2023-08-30T00:35:10;2.00;;;1.08;;
67195;SDS011;54122;53.538;49.366;2023-08-30T00:37:36;2.90;;;1.40;;
67195;SDS011;54122;53.538;49.366;2023-08-30T00:40:03;3.03;;;1.50;;
67195;SDS011;54122;53.538;49.366;2023-08-30T00:42:29;3.47;;;1.08;;
67195;SDS011;54122;53.538;49.366;2023-08-30T00:44:56;1.60;;;1.05;;
67195;SDS011;54122;53.538;49.366;2023-08-30T00:47:22;3.10;;;1.10;;
67195;SDS011;54122;53.538;49.366;2023-08-30T00:49:49;1.13;;;0.88;;
67195;SDS011;54122;53.538;49.366;2023-08-30T00:52:15;2.97;;;1.40;;
67195;SDS011;54122;53.538;49.366;2023-08-30T00:54:42;2.05;;;1.05;;
67195;SDS011;54122;53.538;49.366;2023-08-30T00:57:08;3.13;;;1.20;;
67195;SDS011;54122;53.538;49.366;2023-08-30T00:59:35;1.20;;;0.88;;
67195;SDS011;54122;53.538;49.366;2023-08-30T01:02:03;2.45;;;1.20;;
67195;SDS011;54122;53.538;49.366;2023-08-30T01:04:30;15.70;;;1.30;;
67195;SDS011;54122;53.538;49.366;2023-08-30T01:06:56;4.00;;;1.00;;
67195;SDS011;54122;53.538;49.366;2023-08-30T01:09:23;3.67;;;1.20;;
67195;SDS011;54122;53.538;49.366;2023-08-30T01:11:53;3.00;;;1.02;;
67195;SDS011;54122;53.538;49.366;2023-08-30T01:14:29;2.70;;;1.15;;
67195;SDS011;54122;53.538;49.366;2023-08-30T01:17:04;2.38;;;1.40;;
67195;SDS011;54122;53.538;49.366;2023-08-30T01:27:53;1.80;;;1.00;;
67195;SDS011;54122;53.538;49.366;2023-08-30T01:30:21;8.52;;;1.48;;
67195;SDS011;54122;53.538;49.366;2023-08-30T01:32:49;5.03;;;0.90;;
67195;SDS011;54122;53.538;49.366;2023-08-30T01:35:16;4.75;;;1.30;;
67195;SDS011;54122;53.538;49.366;2023-08-30T01:37:45;9.00;;;1.45;;
67195;SDS011;54122;53.538;49.366;2023-08-30T01:40:13;2.88;;;1.25;;
67195;SDS011;54122;53.538;49.366;2023-08-30T01:42:42;1.90;;;1.20;;
67195;SDS011;54122;53.538;49.366;2023-08-30T01:45:14;3.15;;;1.25;;
67195;SDS011;54122;53.538;49.366;2023-08-30T01:47:41;5.68;;;1.30;;
67195;SDS011;54122;53.538;49.366;2023-08-30T01:50:09;3.63;;;1.15;;
67195;SDS011;54122;53.538;49.366;2023-08-30T01:52:37;10.13;;;1.40;;
67195;SDS011;54122;53.538;49.366;2023-08-30T01:55:04;5.30;;;1.33;;
67195;SDS011;54122;53.538;49.366;2023-08-30T01:57:33;4.40;;;1.30;;
67195;SDS011;54122;53.538;49.366;2023-08-30T01:59:59;2.97;;;1.63;;
67195;SDS011;54122;53.538;49.366;2023-08-30T02:02:29;3.83;;;1.30;;
67195;SDS011;54122;53.538;49.366;2023-08-30T02:04:56;3.00;;;1.42;;
67195;SDS011;54122;53.538;49.366;2023-08-30T02:10:15;2.25;;;1.30;;
67195;SDS011;54122;53.538;49.366;2023-08-30T02:12:49;2.80;;;1.02;;
67195;SDS011;54122;53.538;49.366;2023-08-30T02:15:18;7.40;;;1.42;;
67195;SDS011;54122;53.538;49.366;2023-08-30T02:17:44;2.42;;;1.20;;
67195;SDS011;54122;53.538;49.366;2023-08-30T02:20:11;2.17;;;1.50;;
67195;SDS011;54122;53.538;49.366;2023-08-30T02:22:37;4.47;;;1.63;;
67195;SDS011;54122;53.538;49.366;2023-08-30T02:25:03;7.85;;;1.80;;
67195;SDS011;54122;53.538;49.366;2023-08-30T02:27:30;6.97;;;1.83;;
67195;SDS011;54122;53.538;49.366;2023-08-30T02:29:57;6.22;;;1.45;;
67195;SDS011;54122;53.538;49.366;2023-08-30T02:32:23;3.33;;;1.75;;
67195;SDS011;54122;53.538;49.366;2023-08-30T02:34:50;5.18;;;1.83;;
67195;SDS011;54122;53.538;49.366;2023-08-30T02:37:18;3.40;;;1.55;;
67195;SDS011;54122;53.538;49.366;2023-08-30T02:39:45;4.30;;;1.20;;
67195;SDS011;54122;53.538;49.366;2023-08-30T02:42:11;2.70;;;1.60;;
67195;SDS011;54122;53.538;49.366;2023-08-30T02:44:37;2.60;;;1.20;;
67195;SDS011;54122;53.538;49.366;2023-08-30T02:47:03;2.13;;;1.10;;
67195;SDS011;54122;53.538;49.366;2023-08-30T02:49:29;3.47;;;1.35;;
67195;SDS011;54122;53.538;49.366;2023-08-30T02:51:55;2.40;;;1.10;;
67195;SDS011;54122;53.538;49.366;2023-08-30T02:54:21;8.13;;;1.10;;
67195;SDS011;54122;53.538;49.366;2023-08-30T02:56:48;2.85;;;1.05;;
67195;SDS011;54122;53.538;49.366;2023-08-30T02:59:14;3.80;;;1.50;;
67195;SDS011;54122;53.538;49.366;2023-08-30T03:01:40;11.23;;;1.02;;
67195;SDS011;54122;53.538;49.366;2023-08-30T03:04:07;5.45;;;1.38;;
67195;SDS011;54122;53.538;49.366;2023-08-30T03:06:33;5.78;;;1.95;;
67195;SDS011;54122;53.538;49.366;2023-08-30T03:09:00;4.07;;;1.35;;
67195;SDS011;54122;53.538;49.366;2023-08-30T03:11:28;2.50;;;1.13;;
67195;SDS011;54122;53.538;49.366;2023-08-30T03:13:54;2.80;;;0.95;;
67195;SDS011;54122;53.538;49.366;2023-08-30T03:16:23;2.42;;;1.08;;
67195;SDS011;54122;53.538;49.366;2023-08-30T03:18:49;2.15;;;1.10;;
67195;SDS011;54122;53.538;49.366;2023-08-30T03:21:15;2.00;;;1.10;;
67195;SDS011;54122;53.538;49.366;2023-08-30T03:23:42;4.75;;;1.42;;
67195;SDS011;54122;53.538;49.366;2023-08-30T03:26:08;2.25;;;1.27;;
67195;SDS011;54122;53.538;49.366;2023-08-30T03:28:35;4.00;;;1.80;;
67195;SDS011;54122;53.538;49.366;2023-08-30T03:31:02;2.50;;;1.33;;
67195;SDS011;54122;53.538;49.366;2023-08-30T03:33:36;3.28;;;1.52;;
67195;SDS011;54122;53.538;49.366;2023-08-30T03:36:02;6.53;;;1.48;;
67195;SDS011;54122;53.538;49.366;2023-08-30T03:38:28;5.30;;;1.30;;
67195;SDS011;54122;53.538;49.366;2023-08-30T03:40:54;4.47;;;1.60;;
67195;SDS011;54122;53.538;49.366;2023-08-30T03:43:20;4.50;;;1.48;;
67195;SDS011;54122;53.538;49.366;2023-08-30T03:45:46;10.02;;;1.70;;
67195;SDS011;54122;53.538;49.366;2023-08-30T03:48:12;2.78;;;1.45;;
67195;SDS011;54122;53.538;49.366;2023-08-30T03:50:38;5.90;;;1.20;;
67195;SDS011;54122;53.538;49.366;2023-08-30T03:53:04;3.90;;;1.50;;
67195;SDS011;54122;53.538;49.366;2023-08-30T03:55:30;3.50;;;1.33;;
67195;SDS011;54122;53.538;49.366;2023-08-30T03:57:57;5.55;;;1.30;;
67195;SDS011;54122;53.538;49.366;2023-08-30T04:00:23;2.85;;;0.90;;
67195;SDS011;54122;53.538;49.366;2023-08-30T04:02:49;4.60;;;1.00;;
67195;SDS011;54122;53.538;49.366;2023-08-30T04:05:15;2.80;;;0.90;;
67195;SDS011;54122;53.538;49.366;2023-08-30T04:07:41;1.55;;;0.70;;
67195;SDS011;54122;53.538;49.366;2023-08-30T04:10:07;2.25;;;1.00;;
67195;SDS011;54122;53.538;49.366;2023-08-30T04:12:35;1.27;;;0.90;;
67195;SDS011;54122;53.538;49.366;2023-08-30T04:15:01;2.75;;;1.05;;
67195;SDS011;54122;53.538;49.366;2023-08-30T04:17:28;2.28;;;0.82;;
67195;SDS011;54122;53.538;49.366;2023-08-30T04:19:54;1.58;;;0.90;;
67195;SDS011;54122;53.538;49.366;2023-08-30T04:22:20;6.22;;;1.02;;
67195;SDS011;54122;53.538;49.366;2023-08-30T04:24:46;2.70;;;0.93;;
67195;SDS011;54122;53.538;49.366;2023-08-30T04:27:14;4.65;;;0.98;;
67195;SDS011;54122;53.538;49.366;2023-08-30T04:29:40;4.90;;;0.90;;
67195;SDS011;54122;53.538;49.366;2023-08-30T04:32:10;4.03;;;1.10;;
67195;SDS011;54122;53.538;49.366;2023-08-30T04:34:37;0.95;;;0.70;;
67195;SDS011;54122;53.538;49.366;2023-08-30T04:37:03;1.55;;;1.00;;
67195;SDS011;54122;53.538;49.366;2023-08-30T04:39:29;4.70;;;1.25;;
67195;SDS011;54122;53.538;49.366;2023-08-30T04:41:55;1.60;;;0.80;;
67195;SDS011;54122;53.538;49.366;2023-08-30T04:44:22;4.13;;;0.90;;
67195;SDS011;54122;53.538;49.366;2023-08-30T04:46:50;3.20;;;1.00;;
67195;SDS011;54122;53.538;49.366;2023-08-30T04:49:17;2.30;;;1.08;;
67195;SDS011;54122;53.538;49.366;2023-08-30T04:51:43;2.28;;;1.02;;
67195;SDS011;54122;53.538;49.366;2023-08-30T04:54:09;1.83;;;1.05;;
67195;SDS011;54122;53.538;49.366;2023-08-30T04:56:35;1.17;;;0.90;;
67195;SDS011;54122;53.538;49.366;2023-08-30T04:59:02;5.80;;;1.15;;
67195;SDS011;54122;53.538;49.366;2023-08-30T05:01:29;2.28;;;1.05;;
67195;SDS011;54122;53.538;49.366;2023-08-30T05:03:55;1.92;;;1.05;;
67195;SDS011;54122;53.538;49.366;2023-08-30T05:06:22;4.88;;;1.98;;
67195;SDS011;54122;53.538;49.366;2023-08-30T05:08:48;3.92;;;1.17;;
67195;SDS011;54122;53.538;49.366;2023-08-30T05:11:14;3.58;;;1.23;;
67195;SDS011;54122;53.538;49.366;2023-08-30T05:13:41;2.83;;;1.17;;
67195;SDS011;54122;53.538;49.366;2023-08-30T05:16:07;2.45;;;1.10;;
67195;SDS011;54122;53.538;49.366;2023-08-30T05:18:33;1.42;;;0.63;;
67195;SDS011;54122;53.538;49.366;2023-08-30T05:20:59;3.00;;;1.00;;
67195;SDS011;54122;53.538;49.366;2023-08-30T05:23:28;2.50;;;1.08;;
67195;SDS011;54122;53.538;49.366;2023-08-30T05:25:55;2.10;;;1.05;;
67195;SDS011;54122;53.538;49.366;2023-08-30T05:28:21;1.95;;;1.08;;
67195;SDS011;54122;53.538;49.366;2023-08-30T05:30:47;6.15;;;0.93;;
67195;SDS011;54122;53.538;49.366;2023-08-30T05:33:13;3.83;;;1.20;;
67195;SDS011;54122;53.538;49.366;2023-08-30T05:35:39;2.28;;;1.10;;
67195;SDS011;54122;53.538;49.366;2023-08-30T05:38:05;1.60;;;1.05;;
67195;SDS011;54122;53.538;49.366;2023-08-30T05:40:31;1.75;;;0.90;;
67195;SDS011;54122;53.538;49.366;2023-08-30T05:42:57;2.42;;;1.10;;
67195;SDS011;54122;53.538;49.366;2023-08-30T05:45:24;2.97;;;0.80;;
67195;SDS011;54122;53.538;49.366;2023-08-30T05:47:50;1.42;;;0.82;;
67195;SDS011;54122;53.538;49.366;2023-08-30T05:50:16;1.65;;;1.05;;
67195;SDS011;54122;53.538;49.366;2023-08-30T05:52:42;2.05;;;1.15;;
67195;SDS011;54122;53.538;49.366;2023-08-30T05:55:10;0.88;;;0.70;;
67195;SDS011;54122;53.538;49.366;2023-08-30T05:57:36;2.30;;;0.95;;
67195;SDS011;54122;53.538;49.366;2023-08-30T06:00:03;2.45;;;0.82;;
67195;SDS011;54122;53.538;49.366;2023-08-30T06:02:30;1.60;;;0.68;;
67195;SDS011;54122;53.538;49.366;2023-08-30T06:04:56;1.48;;;0.93;;
67195;SDS011;54122;53.538;49.366;2023-08-30T06:07:22;3.67;;;1.00;;
67195;SDS011;54122;53.538;49.366;2023-08-30T06:09:48;0.95;;;0.68;;
67195;SDS011;54122;53.538;49.366;2023-08-30T06:12:14;1.50;;;1.00;;
67195;SDS011;54122;53.538;49.366;2023-08-30T06:14:41;4.82;;;1.20;;
67195;SDS011;54122;53.538;49.366;2023-08-30T06:17:15;4.15;;;1.02;;
67195;SDS011;54122;53.538;49.366;2023-08-30T06:19:41;3.30;;;1.00;;
67195;SDS011;54122;53.538;49.366;2023-08-30T06:22:08;2.83;;;0.75;;
67195;SDS011;54122;53.538;49.366;2023-08-30T06:24:34;2.50;;;1.00;;
67195;SDS011;54122;53.538;49.366;2023-08-30T06:27:00;2.00;;;1.02;;
67195;SDS011;54122;53.538;49.366;2023-08-30T06:29:26;2.10;;;0.88;;
67195;SDS011;54122;53.538;49.366;2023-08-30T06:31:52;2.45;;;0.65;;
67195;SDS011;54122;53.538;49.366;2023-08-30T06:34:18;2.00;;;0.70;;
67195;SDS011;54122;53.538;49.366;2023-08-30T06:36:44;2.13;;;0.93;;
67195;SDS011;54122;53.538;49.366;2023-08-30T06:39:11;3.00;;;0.60;;
67195;SDS011;54122;53.538;49.366;2023-08-30T06:41:37;5.20;;;0.85;;
67195;SDS011;54122;53.538;49.366;2023-08-30T06:44:03;1.00;;;0.68;;
67195;SDS011;54122;53.538;49.366;2023-08-30T06:46:29;2.20;;;0.60;;
67195;SDS011;54122;53.538;49.366;2023-08-30T06:48:55;1.42;;;0.60;;
67195;SDS011;54122;53.538;49.366;2023-08-30T06:51:22;5.80;;;0.80;;
67195;SDS011;54122;53.538;49.366;2023-08-30T06:53:48;0.50;;;0.38;;
67195;SDS011;54122;53.538;49.366;2023-08-30T06:56:14;3.38;;;0.98;;
67195;SDS011;54122;53.538;49.366;2023-08-30T06:58:40;0.70;;;0.68;;
67195;SDS011;54122;53.538;49.366;2023-08-30T07:01:07;1.63;;;0.90;;
67195;SDS011;54122;53.538;49.366;2023-08-30T07:03:33;2.40;;;0.88;;
67195;SDS011;54122;53.538;49.366;2023-08-30T07:05:59;1.45;;;0.50;;
67195;SDS011;54122;53.538;49.366;2023-08-30T07:08:25;1.38;;;0.80;;
67195;SDS011;54122;53.538;49.366;2023-08-30T07:10:52;2.15;;;0.80;;
67195;SDS011;54122;53.538;49.366;2023-08-30T07:13:18;1.92;;;0.75;;
67195;SDS011;54122;53.538;49.366;2023-08-30T07:15:44;1.48;;;0.90;;
67195;SDS011;54122;53.538;49.366;2023-08-30T07:18:12;1.52;;;0.75;;
67195;SDS011;54122;53.538;49.366;2023-08-30T07:20:38;1.33;;;0.77;;
67195;SDS011;54122;53.538;49.366;2023-08-30T07:23:05;2.45;;;1.00;;
67195;SDS011;54122;53.538;49.366;2023-08-30T07:25:31;2.58;;;0.52;;
67195;SDS011;54122;53.538;49.366;2023-08-30T07:28:02;1.42;;;0.73;;
67195;SDS011;54122;53.538;49.366;2023-08-30T07:30:29;7.80;;;0.70;;
67195;SDS011;54122;53.538;49.366;2023-08-30T07:32:56;1.38;;;0.90;;
67195;SDS011;54122;53.538;49.366;2023-08-30T07:35:22;3.80;;;0.95;;
67195;SDS011;54122;53.538;49.366;2023-08-30T07:37:48;1.23;;;0.70;;
67195;SDS011;54122;53.538;49.366;2023-08-30T07:40:14;2.75;;;0.70;;
67195;SDS011;54122;53.538;49.366;2023-08-30T07:42:40;5.38;;;0.82;;
67195;SDS011;54122;53.538;49.366;2023-08-30T07:45:06;1.02;;;0.50;;
67195;SDS011;54122;53.538;49.366;2023-08-30T07:47:34;0.88;;;0.60;;
67195;SDS011;54122;53.538;49.366;2023-08-30T07:50:00;0.43;;;0.35;;
67195;SDS011;54122;53.538;49.366;2023-08-30T07:52:26;0.38;;;0.38;;
67195;SDS011;54122;53.538;49.366;2023-08-30T07:54:52;2.50;;;0.63;;
67195;SDS011;54122;53.538;49.366;2023-08-30T07:57:18;0.90;;;0.50;;
67195;SDS011;54122;53.538;49.366;2023-08-30T07:59:44;0.80;;;0.50;;
67195;SDS011;54122;53.538;49.366;2023-08-30T08:02:10;0.82;;;0.47;;
67195;SDS011;54122;53.538;49.366;2023-08-30T08:04:36;11.45;;;0.95;;
67195;SDS011;54122;53.538;49.366;2023-08-30T08:07:03;10.00;;;0.85;;
67195;SDS011;54122;53.538;49.366;2023-08-30T08:09:30;30.42;;;1.67;;
67195;SDS011;54122;53.538;49.366;2023-08-30T08:11:57;18.33;;;0.70;;
67195;SDS011;54122;53.538;49.366;2023-08-30T08:14:24;0.93;;;0.50;;
67195;SDS011;54122;53.538;49.366;2023-08-30T08:16:50;6.72;;;0.60;;
67195;SDS011;54122;53.538;49.366;2023-08-30T08:19:16;2.90;;;0.95;;
67195;SDS011;54122;53.538;49.366;2023-08-30T08:21:43;0.70;;;0.50;;
67195;SDS011;54122;53.538;49.366;2023-08-30T08:24:09;1.83;;;0.77;;
67195;SDS011;54122;53.538;49.366;2023-08-30T08:26:35;0.75;;;0.50;;
67195;SDS011;54122;53.538;49.366;2023-08-30T08:29:02;9.57;;;0.40;;
67195;SDS011;54122;53.538;49.366;2023-08-30T08:31:29;4.32;;;0.55;;
67195;SDS011;54122;53.538;49.366;2023-08-30T08:34:29;1.15;;;0.50;;
67195;SDS011;54122;53.538;49.366;2023-08-30T08:36:48;6.07;;;0.75;;
67195;SDS011;54122;53.538;49.366;2023-08-30T08:39:15;1.05;;;0.50;;
67195;SDS011;54122;53.538;49.366;2023-08-30T08:41:44;0.90;;;0.55;;
67195;SDS011;54122;53.538;49.366;2023-08-30T08:44:11;1.02;;;0.65;;
67195;SDS011;54122;53.538;49.366;2023-08-30T08:46:39;13.35;;;0.77;;
67195;SDS011;54122;53.538;49.366;2023-08-30T08:49:13;0.70;;;0.43;;
67195;SDS011;54122;53.538;49.366;2023-08-30T08:51:41;0.63;;;0.43;;
67195;SDS011;54122;53.538;49.366;2023-08-30T08:54:09;1.38;;;0.73;;
67195;SDS011;54122;53.538;49.366;2023-08-30T08:56:36;1.10;;;0.63;;
67195;SDS011;54122;53.538;49.366;2023-08-30T08:59:04;3.53;;;0.63;;
67195;SDS011;54122;53.538;49.366;2023-08-30T09:01:34;13.07;;;0.63;;
67195;SDS011;54122;53.538;49.366;2023-08-30T09:04:08;3.95;;;0.60;;
67195;SDS011;54122;53.538;49.366;2023-08-30T09:06:36;0.80;;;0.52;;
67195;SDS011;54122;53.538;49.366;2023-08-30T09:09:03;6.05;;;0.50;;
67195;SDS011;54122;53.538;49.366;2023-08-30T09:11:31;1.05;;;0.60;;
67195;SDS011;54122;53.538;49.366;2023-08-30T09:13:58;0.63;;;0.30;;
67195;SDS011;54122;53.538;49.366;2023-08-30T09:16:24;4.85;;;0.70;;
67195;SDS011;54122;53.538;49.366;2023-08-30T09:18:58;0.95;;;0.47;;
67195;SDS011;54122;53.538;49.366;2023-08-30T09:21:29;3.25;;;0.57;;
67195;SDS011;54122;53.538;49.366;2023-08-30T09:24:00;4.30;;;0.77;;
67195;SDS011;54122;53.538;49.366;2023-08-30T09:26:28;6.55;;;0.75;;
67195;SDS011;54122;53.538;49.366;2023-08-30T09:29:03;1.30;;;0.63;;
67195;SDS011;54122;53.538;49.366;2023-08-30T09:31:38;1.00;;;0.30;;
67195;SDS011;54122;53.538;49.366;2023-08-30T09:34:08;0.73;;;0.32;;
67195;SDS011;54122;53.538;49.366;2023-08-30T09:36:40;2.92;;;0.57;;
67195;SDS011;54122;53.538;49.366;2023-08-30T09:39:08;2.00;;;0.57;;
67195;SDS011;54122;53.538;49.366;2023-08-30T09:41:46;0.57;;;0.43;;
67195;SDS011;54122;53.538;49.366;2023-08-30T09:44:14;1.45;;;0.57;;
67195;SDS011;54122;53.538;49.366;2023-08-30T09:46:46;1.08;;;0.40;;
67195;SDS011;54122;53.538;49.366;2023-08-30T09:49:18;1.23;;;0.75;;
67195;SDS011;54122;53.538;49.366;2023-08-30T09:51:47;0.70;;;0.40;;
67195;SDS011;54122;53.538;49.366;2023-08-30T09:54:15;2.90;;;0.55;;
67195;SDS011;54122;53.538;49.366;2023-08-30T09:56:43;0.95;;;0.60;;
67195;SDS011;54122;53.538;49.366;2023-08-30T09:59:11;1.27;;;0.60;;
67195;SDS011;54122;53.538;49.366;2023-08-30T10:01:41;2.90;;;0.70;;
67195;SDS011;54122;53.538;49.366;2023-08-30T10:04:09;1.95;;;0.47;;
67195;SDS011;54122;53.538;49.366;2023-08-30T10:06:36;1.02;;;0.50;;
67195;SDS011;54122;53.538;49.366;2023-08-30T10:09:10;3.03;;;0.70;;
67195;SDS011;54122;53.538;49.366;2023-08-30T10:11:37;6.53;;;0.65;;
67195;SDS011;54122;53.538;49.366;2023-08-30T10:14:04;1.45;;;0.68;;
67195;SDS011;54122;53.538;49.366;2023-08-30T10:19:14;1.35;;;0.60;;
67195;SDS011;54122;53.538;49.366;2023-08-30T10:21:44;3.10;;;0.60;;
67195;SDS011;54122;53.538;49.366;2023-08-30T10:24:14;0.82;;;0.65;;
67195;SDS011;54122;53.538;49.366;2023-08-30T10:26:44;1.50;;;0.80;;
67195;SDS011;54122;53.538;49.366;2023-08-30T10:29:12;0.77;;;0.57;;
67195;SDS011;54122;53.538;49.366;2023-08-30T10:31:40;1.00;;;0.50;;
67195;SDS011;54122;53.538;49.366;2023-08-30T10:34:16;1.75;;;0.70;;
67195;SDS011;54122;53.538;49.366;2023-08-30T10:36:43;0.70;;;0.43;;
67195;SDS011;54122;53.538;49.366;2023-08-30T10:39:13;1.00;;;0.30;;
67195;SDS011;54122;53.538;49.366;2023-08-30T10:41:56;1.67;;;0.40;;
67195;SDS011;54122;53.538;49.366;2023-08-30T10:44:23;6.10;;;0.50;;
67195;SDS011;54122;53.538;49.366;2023-08-30T10:46:52;0.88;;;0.60;;
67195;SDS011;54122;53.538;49.366;2023-08-30T10:49:19;1.90;;;0.52;;
67195;SDS011;54122;53.538;49.366;2023-08-30T10:51:54;1.23;;;0.60;;
67195;SDS011;54122;53.538;49.366;2023-08-30T10:54:36;7.55;;;0.70;;
67195;SDS011;54122;53.538;49.366;2023-08-30T10:57:12;1.75;;;0.50;;
67195;SDS011;54122;53.538;49.366;2023-08-30T10:59:39;2.70;;;0.50;;
67195;SDS011;54122;53.538;49.366;2023-08-30T11:02:13;2.00;;;0.68;;
67195;SDS011;54122;53.538;49.366;2023-08-30T11:04:42;0.20;;;0.20;;
67195;SDS011;54122;53.538;49.366;2023-08-30T11:07:18;1.13;;;0.70;;
67195;SDS011;54122;53.538;49.366;2023-08-30T11:09:44;3.95;;;0.63;;
67195;SDS011;54122;53.538;49.366;2023-08-30T11:12:12;0.57;;;0.43;;
67195;SDS011;54122;53.538;49.366;2023-08-30T11:14:40;0.70;;;0.52;;
67195;SDS011;54122;53.538;49.366;2023-08-30T11:17:09;1.02;;;0.50;;
67195;SDS011;54122;53.538;49.366;2023-08-30T11:19:36;0.75;;;0.32;;
67195;SDS011;54122;53.538;49.366;2023-08-30T11:22:02;2.70;;;0.93;;
67195;SDS011;54122;53.538;49.366;2023-08-30T11:24:28;2.83;;;0.50;;
67195;SDS011;54122;53.538;49.366;2023-08-30T11:26:54;0.82;;;0.50;;
67195;SDS011;54122;53.538;49.366;2023-08-30T11:29:21;5.72;;;0.52;;
67195;SDS011;54122;53.538;49.366;2023-08-30T11:31:47;1.05;;;0.65;;
67195;SDS011;54122;53.538;49.366;2023-08-30T11:34:15;0.60;;;0.50;;
67195;SDS011;54122;53.538;49.366;2023-08-30T11:36:47;2.03;;;0.50;;
67195;SDS011;54122;53.538;49.366;2023-08-30T11:39:15;0.57;;;0.40;;
67195;SDS011;54122;53.538;49.366;2023-08-30T11:41:42;15.40;;;0.65;;
67195;SDS011;54122;53.538;49.366;2023-08-30T11:44:09;4.10;;;0.40;;
67195;SDS011;54122;53.538;49.366;2023-08-30T11:46:35;0.80;;;0.50;;
67195;SDS011;54122;53.538;49.366;2023-08-30T11:49:02;29.02;;;0.98;;
67195;SDS011;54122;53.538;49.366;2023-08-30T11:51:29;0.65;;;0.47;;
67195;SDS011;54122;53.538;49.366;2023-08-30T11:53:58;0.40;;;0.20;;
67195;SDS011;54122;53.538;49.366;2023-08-30T11:56:27;1.88;;;0.50;;
67195;SDS011;54122;53.538;49.366;2023-08-30T11:58:54;0.52;;;0.38;;
67195;SDS011;54122;53.538;49.366;2023-08-30T12:01:20;0.65;;;0.35;;
67195;SDS011;54122;53.538;49.366;2023-08-30T12:03:47;4.95;;;0.40;;
67195;SDS011;54122;53.538;49.366;2023-08-30T12:06:16;1.30;;;0.52;;
67195;SDS011;54122;53.538;49.366;2023-08-30T12:08:42;3.50;;;0.50;;
67195;SDS011;54122;53.538;49.366;2023-08-30T12:11:18;0.88;;;0.32;;
67195;SDS011;54122;53.538;49.366;2023-08-30T12:13:45;3.70;;;0.50;;
67195;SDS011;54122;53.538;49.366;2023-08-30T12:16:16;2.47;;;1.52;;
67195;SDS011;54122;53.538;49.366;2023-08-30T12:18:43;0.45;;;0.30;;
67195;SDS011;54122;53.538;49.366;2023-08-30T12:21:10;0.40;;;0.35;;
67195;SDS011;54122;53.538;49.366;2023-08-30T12:23:39;3.50;;;0.68;;
67195;SDS011;54122;53.538;49.366;2023-08-30T12:26:06;1.45;;;0.63;;
67195;SDS011;54122;53.538;49.366;2023-08-30T12:28:34;1.30;;;0.50;;
67195;SDS011;54122;53.538;49.366;2023-08-30T12:31:05;1.20;;;0.70;;
67195;SDS011;54122;53.538;49.366;2023-08-30T12:33:35;1.58;;;0.32;;
67195;SDS011;54122;53.538;49.366;2023-08-30T12:36:03;0.93;;;0.50;;
67195;SDS011;54122;53.538;49.366;2023-08-30T12:38:29;1.75;;;0.73;;
67195;SDS011;54122;53.538;49.366;2023-08-30T12:40:56;1.08;;;0.45;;
67195;SDS011;54122;53.538;49.366;2023-08-30T12:43:23;1.77;;;0.52;;
67195;SDS011;54122;53.538;49.366;2023-08-30T12:45:50;8.55;;;0.50;;
67195;SDS011;54122;53.538;49.366;2023-08-30T12:48:17;0.82;;;0.50;;
67195;SDS011;54122;53.538;49.366;2023-08-30T12:50:45;1.25;;;0.88;;
67195;SDS011;54122;53.538;49.366;2023-08-30T12:53:14;2.00;;;0.80;;
67195;SDS011;54122;53.538;49.366;2023-08-30T12:55:43;1.08;;;0.77;;
67195;SDS011;54122;53.538;49.366;2023-08-30T12:58:10;2.03;;;0.60;;
67195;SDS011;54122;53.538;49.366;2023-08-30T13:00:37;6.45;;;1.13;;
67195;SDS011;54122;53.538;49.366;2023-08-30T13:03:05;5.07;;;0.77;;
67195;SDS011;54122;53.538;49.366;2023-08-30T13:05:33;8.98;;;1.02;;
67195;SDS011;54122;53.538;49.366;2023-08-30T13:08:01;2.40;;;1.08;;
67195;SDS011;54122;53.538;49.366;2023-08-30T13:10:28;2.47;;;0.68;;
67195;SDS011;54122;53.538;49.366;2023-08-30T13:12:54;1.85;;;1.00;;
67195;SDS011;54122;53.538;49.366;2023-08-30T13:15:20;2.97;;;1.20;;
67195;SDS011;54122;53.538;49.366;2023-08-30T13:17:47;4.00;;;0.90;;
67195;SDS011;54122;53.538;49.366;2023-08-30T13:20:13;13.73;;;0.60;;
67195;SDS011;54122;53.538;49.366;2023-08-30T13:22:39;4.30;;;1.77;;
67195;SDS011;54122;53.538;49.366;2023-08-30T13:25:05;21.38;;;1.13;;
67195;SDS011;54122;53.538;49.366;2023-08-30T13:27:33;1.38;;;0.60;;
67195;SDS011;54122;53.538;49.366;2023-08-30T13:30:00;1.88;;;0.70;;
67195;SDS011;54122;53.538;49.366;2023-08-30T13:32:26;9.40;;;0.50;;
67195;SDS011;54122;53.538;49.366;2023-08-30T13:34:52;2.47;;;0.60;;
67195;SDS011;54122;53.538;49.366;2023-08-30T13:37:18;1.67;;;0.60;;
67195;SDS011;54122;53.538;49.366;2023-08-30T13:39:45;1.77;;;0.77;;
67195;SDS011;54122;53.538;49.366;2023-08-30T13:42:11;4.25;;;0.93;;
67195;SDS011;54122;53.538;49.366;2023-08-30T13:44:37;5.80;;;1.02;;
67195;SDS011;54122;53.538;49.366;2023-08-30T13:47:04;0.60;;;0.50;;
67195;SDS011;54122;53.538;49.366;2023-08-30T13:49:30;1.45;;;0.52;;
67195;SDS011;54122;53.538;49.366;2023-08-30T13:51:57;2.42;;;0.60;;
67195;SDS011;54122;53.538;49.366;2023-08-30T13:54:26;2.67;;;0.60;;
67195;SDS011;54122;53.538;49.366;2023-08-30T13:56:56;1.48;;;0.60;;
67195;SDS011;54122;53.538;49.366;2023-08-30T13:59:24;1.17;;;0.40;;
67195;SDS011;54122;53.538;49.366;2023-08-30T14:01:50;2.28;;;0.45;;
67195;SDS011;54122;53.538;49.366;2023-08-30T14:04:16;1.65;;;0.35;;
67195;SDS011;54122;53.538;49.366;2023-08-30T14:06:43;1.23;;;0.30;;
67195;SDS011;54122;53.538;49.366;2023-08-30T14:09:11;0.90;;;0.32;;
67195;SDS011;54122;53.538;49.366;2023-08-30T14:11:39;1.75;;;0.30;;
67195;SDS011;54122;53.538;49.366;2023-08-30T14:14:07;1.23;;;0.50;;
67195;SDS011;54122;53.538;49.366;2023-08-30T14:16:34;2.30;;;0.40;;
67195;SDS011;54122;53.538;49.366;2023-08-30T14:19:02;0.70;;;0.30;;
67195;SDS011;54122;53.538;49.366;2023-08-30T14:21:31;1.38;;;0.32;;
67195;SDS011;54122;53.538;49.366;2023-08-30T14:23:58;4.38;;;0.75;;
67195;SDS011;54122;53.538;49.366;2023-08-30T14:26:25;0.70;;;0.28;;
67195;SDS011;54122;53.538;49.366;2023-08-30T14:28:52;0.65;;;0.30;;
67195;SDS011;54122;53.538;49.366;2023-08-30T14:31:18;2.28;;;0.50;;
67195;SDS011;54122;53.538;49.366;2023-08-30T14:33:44;3.83;;;0.40;;
67195;SDS011;54122;53.538;49.366;2023-08-30T14:36:11;0.80;;;0.50;;
67195;SDS011;54122;53.538;49.366;2023-08-30T14:38:38;2.35;;;0.50;;
67195;SDS011;54122;53.538;49.366;2023-08-30T14:41:06;2.38;;;0.50;;
67195;SDS011;54122;53.538;49.366;2023-08-30T14:43:33;1.75;;;0.68;;
67195;SDS011;54122;53.538;49.366;2023-08-30T14:46:00;2.78;;;0.40;;
67195;SDS011;54122;53.538;49.366;2023-08-30T14:48:31;1.70;;;0.68;;